Time,TemperatureF,DewpointF,PressureIn,WindDirection,WindDirectionDegrees,WindSpeedMPH,WindSpeedGustMPH,Humidity,HourlyPrecipIn,Conditions,Clouds,dailyrainin,SoftwareType,DateUTC
2013-03-12 00:00:00,34.3,31.1,29.77,WSW,245,11.0,22.0,88,0.00,,---,0.00,VWS V14.01,2013-03-12 04:00:00,
2013-03-12 00:01:00,34.3,31.1,29.77,WSW,245,11.0,22.0,88,0.00,,---,0.00,VWS V14.00,2013-03-12 04:01:00,
2013-03-12 00:30:00,34.0,30.8,29.78,West,264,19.0,19.0,88,0.00,,---,0.00,VWS V14.01,2013-03-12 04:30:00,
2013-03-12 00:31:00,34.0,30.8,29.78,West,264,19.0,19.0,88,0.00,,---,0.00,VWS V14.00,2013-03-12 04:31:00,
2013-03-12 01:00:00,33.6,30.1,29.80,WSW,250,12.0,20.0,87,0.00,,---,0.00,VWS V14.01,2013-03-12 05:00:00,
2013-03-12 01:01:00,33.6,30.1,29.80,WSW,250,12.0,20.0,87,0.00,,---,0.00,VWS V14.00,2013-03-12 05:01:00,
2013-03-12 01:30:00,33.4,30.2,29.81,West,267,12.0,21.0,88,0.00,,---,0.00,VWS V14.01,2013-03-12 05:30:00,
2013-03-12 01:31:00,33.4,30.2,29.81,West,267,12.0,21.0,88,0.00,,---,0.00,VWS V14.00,2013-03-12 05:31:00,
2013-03-12 02:00:00,33.2,30.3,29.81,West,260,8.0,18.0,89,0.00,,---,0.00,VWS V14.01,2013-03-12 06:00:00,
2013-03-12 02:01:00,33.2,30.3,29.81,West,260,8.0,18.0,89,0.00,,---,0.00,VWS V14.00,2013-03-12 06:01:00,
2013-03-12 02:30:00,32.9,30.0,29.82,WSW,246,14.0,19.0,89,0.00,,---,0.00,VWS V14.01,2013-03-12 06:30:00,
2013-03-12 02:31:00,32.9,30.0,29.82,WSW,246,14.0,19.0,89,0.00,,---,0.00,VWS V14.00,2013-03-12 06:31:00,
2013-03-12 03:00:00,32.6,30.3,29.83,WSW,251,13.0,18.0,91,0.00,,---,0.00,VWS V14.01,2013-03-12 07:00:00,
2013-03-12 03:01:00,32.6,30.3,29.83,WSW,251,13.0,18.0,91,0.00,,---,0.00,VWS V14.00,2013-03-12 07:01:00,
2013-03-12 03:30:00,32.1,30.3,29.83,WSW,255,15.0,16.0,93,0.00,,---,0.00,VWS V14.01,2013-03-12 07:30:00,
2013-03-12 03:31:00,32.1,30.3,29.83,WSW,255,15.0,16.0,93,0.00,,---,0.00,VWS V14.00,2013-03-12 07:31:00,
2013-03-12 04:00:00,31.9,30.1,29.83,West,271,9.0,15.0,93,0.00,,---,0.00,VWS V14.01,2013-03-12 08:00:00,
2013-03-12 04:01:00,31.9,30.1,29.83,West,271,9.0,15.0,93,0.00,,---,0.00,VWS V14.00,2013-03-12 08:01:00,
2013-03-12 04:30:00,31.6,30.1,29.83,West,273,13.0,18.0,94,0.00,,---,0.00,VWS V14.01,2013-03-12 08:30:00,
2013-03-12 04:31:00,31.6,30.1,29.83,West,273,13.0,18.0,94,0.00,,---,0.00,VWS V14.00,2013-03-12 08:31:00,
2013-03-12 05:00:00,31.6,29.5,29.84,West,271,11.0,21.0,92,0.00,,---,0.00,VWS V14.01,2013-03-12 09:00:00,
2013-03-12 05:01:00,31.6,29.5,29.84,West,271,11.0,21.0,92,0.00,,---,0.00,VWS V14.00,2013-03-12 09:01:00,
2013-03-12 05:30:00,31.6,29.3,29.85,WNW,292,10.0,20.0,91,0.00,,---,0.00,VWS V14.01,2013-03-12 09:30:00,
2013-03-12 05:31:00,31.6,29.3,29.85,WNW,292,10.0,20.0,91,0.00,,---,0.00,VWS V14.00,2013-03-12 09:31:00,
2013-03-12 06:00:00,31.7,29.1,29.85,West,281,8.0,18.0,90,0.00,,---,0.00,VWS V14.01,2013-03-12 10:00:00,
2013-03-12 06:01:00,31.7,29.1,29.85,West,281,8.0,18.0,90,0.00,,---,0.00,VWS V14.00,2013-03-12 10:01:00,
2013-03-12 06:30:00,31.8,28.7,29.86,West,281,14.0,18.0,88,0.00,,---,0.00,VWS V14.01,2013-03-12 10:30:00,
2013-03-12 06:31:00,31.8,28.7,29.86,West,281,14.0,18.0,88,0.00,,---,0.00,VWS V14.00,2013-03-12 10:31:00,
2013-03-12 07:00:00,31.5,28.9,29.87,West,277,9.0,20.0,90,0.00,,---,0.00,VWS V14.01,2013-03-12 11:00:00,
2013-03-12 07:01:00,31.5,28.9,29.87,West,277,9.0,20.0,90,0.00,,---,0.00,VWS V14.00,2013-03-12 11:01:00,
2013-03-12 07:30:00,31.3,28.4,29.88,West,274,7.0,21.0,89,0.00,,---,0.00,VWS V14.01,2013-03-12 11:30:00,
2013-03-12 07:31:00,31.3,28.4,29.88,West,274,7.0,21.0,89,0.00,,---,0.00,VWS V14.00,2013-03-12 11:31:00,
2013-03-12 08:00:00,31.1,28.5,29.89,WNW,285,10.0,16.0,90,0.00,,---,0.00,VWS V14.01,2013-03-12 12:00:00,
2013-03-12 08:01:00,31.1,28.5,29.89,WNW,285,10.0,16.0,90,0.00,,---,0.00,VWS V14.00,2013-03-12 12:01:00,
2013-03-12 08:30:00,30.7,28.1,29.90,West,269,10.0,17.0,90,0.00,,---,0.00,VWS V14.01,2013-03-12 12:30:00,
2013-03-12 08:31:00,30.7,28.1,29.90,West,269,10.0,17.0,90,0.00,,---,0.00,VWS V14.00,2013-03-12 12:31:00,
2013-03-12 09:00:00,30.5,27.6,29.92,WSW,245,7.0,15.0,89,0.00,,---,0.00,VWS V14.01,2013-03-12 13:00:00,
2013-03-12 09:01:00,30.5,27.6,29.92,WSW,245,7.0,15.0,89,0.00,,---,0.00,VWS V14.00,2013-03-12 13:01:00,
2013-03-12 09:30:00,30.4,26.7,29.92,WSW,257,11.0,17.0,86,0.00,,---,0.00,VWS V14.01,2013-03-12 13:30:00,
2013-03-12 09:31:00,30.4,26.7,29.92,WSW,257,11.0,17.0,86,0.00,,---,0.00,VWS V14.00,2013-03-12 13:31:00,
2013-03-12 10:00:00,30.3,26.1,29.93,West,267,17.0,18.0,84,0.00,,---,0.00,VWS V14.01,2013-03-12 14:00:00,
2013-03-12 10:01:00,30.3,26.1,29.93,West,267,17.0,18.0,84,0.00,,---,0.00,VWS V14.00,2013-03-12 14:01:00,
2013-03-12 10:30:00,30.1,25.0,29.93,West,264,11.0,17.0,81,0.00,,---,0.00,VWS V14.01,2013-03-12 14:30:00,
2013-03-12 10:31:00,30.1,25.0,29.93,West,264,11.0,17.0,81,0.00,,---,0.00,VWS V14.00,2013-03-12 14:31:00,
2013-03-12 11:00:00,30.4,25.0,29.93,WNW,288,8.0,15.0,80,0.00,,---,0.00,VWS V14.01,2013-03-12 15:00:00,
2013-03-12 11:01:00,30.4,25.0,29.93,WNW,288,8.0,15.0,80,0.00,,---,0.00,VWS V14.00,2013-03-12 15:01:00,
2013-03-12 11:30:00,30.6,25.2,29.94,WNW,282,9.0,16.0,80,0.00,,---,0.00,VWS V14.01,2013-03-12 15:30:00,
2013-03-12 11:31:00,30.6,25.2,29.94,WNW,282,9.0,16.0,80,0.00,,---,0.00,VWS V14.00,2013-03-12 15:31:00,
2013-03-12 12:00:00,30.8,25.1,29.95,WNW,288,5.0,16.0,79,0.00,,---,0.00,VWS V14.01,2013-03-12 16:00:00,
2013-03-12 12:01:00,30.8,25.1,29.95,WNW,288,5.0,16.0,79,0.00,,---,0.00,VWS V14.00,2013-03-12 16:01:00,
2013-03-12 12:30:00,31.3,26.5,29.95,SW,224,7.0,17.0,82,0.00,,---,0.00,VWS V14.01,2013-03-12 16:30:00,
2013-03-12 12:31:00,31.3,26.5,29.95,SW,224,7.0,17.0,82,0.00,,---,0.00,VWS V14.00,2013-03-12 16:31:00,
2013-03-12 13:00:00,31.3,26.8,29.95,West,276,11.0,18.0,83,0.00,,---,0.00,VWS V14.01,2013-03-12 17:00:00,
2013-03-12 13:01:00,31.3,26.8,29.95,West,276,11.0,18.0,83,0.00,,---,0.00,VWS V14.00,2013-03-12 17:01:00,
2013-03-12 13:30:00,31.3,26.5,29.96,WSW,243,10.0,18.0,82,0.00,,---,0.00,VWS V14.01,2013-03-12 17:30:00,
2013-03-12 13:31:00,31.3,26.5,29.96,WSW,243,10.0,18.0,82,0.00,,---,0.00,VWS V14.00,2013-03-12 17:31:00,
2013-03-12 14:00:00,32.1,26.3,29.95,WSW,246,9.0,18.0,79,0.00,,---,0.00,VWS V14.01,2013-03-12 18:00:00,
2013-03-12 14:01:00,32.1,26.3,29.95,WSW,246,9.0,18.0,79,0.00,,---,0.00,VWS V14.00,2013-03-12 18:01:00,
2013-03-12 14:30:00,32.6,26.5,29.95,West,266,8.0,20.0,78,0.00,,---,0.00,VWS V14.01,2013-03-12 18:30:00,
2013-03-12 14:31:00,32.6,26.5,29.95,West,266,8.0,20.0,78,0.00,,---,0.00,VWS V14.00,2013-03-12 18:31:00,
2013-03-12 15:00:00,32.9,27.4,29.94,West,278,9.0,17.0,80,0.00,,---,0.00,VWS V14.01,2013-03-12 19:00:00,
2013-03-12 15:01:00,32.9,27.4,29.94,West,278,9.0,17.0,80,0.00,,---,0.00,VWS V14.00,2013-03-12 19:01:00,
2013-03-12 15:30:00,33.8,27.4,29.94,SW,232,4.0,17.0,77,0.00,,---,0.00,VWS V14.01,2013-03-12 19:30:00,
2013-03-12 15:31:00,33.8,27.4,29.94,SW,232,4.0,17.0,77,0.00,,---,0.00,VWS V14.00,2013-03-12 19:31:00,
2013-03-12 16:00:00,34.7,26.6,29.94,SW,224,7.0,18.0,72,0.00,,---,0.00,VWS V14.01,2013-03-12 20:00:00,
2013-03-12 16:01:00,34.7,26.6,29.94,SW,224,7.0,18.0,72,0.00,,---,0.00,VWS V14.00,2013-03-12 20:01:00,
2013-03-12 16:30:00,34.7,26.3,29.94,West,266,12.0,20.0,71,0.00,,---,0.00,VWS V14.01,2013-03-12 20:30:00,
2013-03-12 16:31:00,34.7,26.3,29.94,West,266,12.0,20.0,71,0.00,,---,0.00,VWS V14.00,2013-03-12 20:31:00,
2013-03-12 17:00:00,34.4,26.3,29.95,West,276,12.0,22.0,72,0.00,,---,0.00,VWS V14.01,2013-03-12 21:00:00,
2013-03-12 17:01:00,34.4,26.3,29.95,West,276,12.0,22.0,72,0.00,,---,0.00,VWS V14.00,2013-03-12 21:01:00,
2013-03-12 17:30:00,34.4,26.7,29.95,WSW,256,15.0,20.0,73,0.00,,---,0.00,VWS V14.01,2013-03-12 21:30:00,
2013-03-12 17:31:00,34.4,26.7,29.95,WSW,256,15.0,20.0,73,0.00,,---,0.00,VWS V14.00,2013-03-12 21:31:00,
2013-03-12 18:00:00,34.7,27.3,29.96,West,272,8.0,19.0,74,0.00,,---,0.00,VWS V14.01,2013-03-12 22:00:00,
2013-03-12 18:01:00,34.7,27.3,29.96,West,272,8.0,19.0,74,0.00,,---,0.00,VWS V14.00,2013-03-12 22:01:00,
2013-03-12 18:30:00,34.6,26.9,29.96,WSW,243,12.0,18.0,73,0.00,,---,0.00,VWS V14.01,2013-03-12 22:30:00,
2013-03-12 18:31:00,34.6,26.9,29.96,WSW,243,12.0,18.0,73,0.00,,---,0.00,VWS V14.00,2013-03-12 22:31:00,
2013-03-12 19:00:00,34.8,27.7,29.96,West,259,8.0,15.0,75,0.00,,---,0.00,VWS V14.01,2013-03-12 23:00:00,
2013-03-12 19:01:00,34.8,27.7,29.96,West,259,8.0,15.0,75,0.00,,---,0.00,VWS V14.00,2013-03-12 23:01:00,
2013-03-12 19:30:00,34.4,28.0,29.95,SW,233,3.0,14.0,77,0.00,,---,0.00,VWS V14.01,2013-03-12 23:30:00,
2013-03-12 19:31:00,34.4,28.0,29.95,SW,233,3.0,14.0,77,0.00,,---,0.00,VWS V14.00,2013-03-12 23:31:00,
2013-03-12 20:00:00,33.9,29.0,29.96,West,280,8.0,14.0,82,0.00,,---,0.00,VWS V14.01,2013-03-13 00:00:00,
2013-03-12 20:01:00,33.9,29.0,29.96,West,280,8.0,14.0,82,0.00,,---,0.00,VWS V14.00,2013-03-13 00:01:00,
2013-03-12 20:30:00,31.7,30.4,29.97,West,263,7.0,15.0,95,0.00,,---,0.00,VWS V14.01,2013-03-13 00:30:00,
2013-03-12 20:31:00,31.7,30.4,29.97,West,263,7.0,15.0,95,0.00,,---,0.00,VWS V14.00,2013-03-13 00:31:00,
2013-03-12 21:00:00,31.9,30.9,29.97,West,266,9.0,12.0,96,0.00,,---,0.00,VWS V14.01,2013-03-13 01:00:00,
2013-03-12 21:01:00,31.9,30.9,29.97,West,266,9.0,12.0,96,0.00,,---,0.00,VWS V14.00,2013-03-13 01:01:00,
2013-03-12 21:30:00,32.1,30.3,29.97,WNW,285,9.0,16.0,93,0.00,,---,0.00,VWS V14.01,2013-03-13 01:30:00,
2013-03-12 21:31:00,32.1,30.3,29.97,WNW,285,9.0,16.0,93,0.00,,---,0.00,VWS V14.00,2013-03-13 01:31:00,
2013-03-12 22:00:00,31.8,29.5,29.98,West,267,5.0,11.0,91,0.00,,---,0.00,VWS V14.01,2013-03-13 02:00:00,
2013-03-12 22:01:00,31.8,29.5,29.98,West,267,5.0,11.0,91,0.00,,---,0.00,VWS V14.00,2013-03-13 02:01:00,
2013-03-12 22:30:00,31.4,29.1,29.98,WSW,255,5.0,9.0,91,0.00,,---,0.00,VWS V14.01,2013-03-13 02:30:00,
2013-03-12 22:31:00,31.4,29.1,29.98,WSW,255,5.0,9.0,91,0.00,,---,0.00,VWS V14.00,2013-03-13 02:31:00,
2013-03-12 23:00:00,31.2,28.3,29.98,West,260,9.0,12.0,89,0.00,,---,0.00,VWS V14.01,2013-03-13 03:00:00,
2013-03-12 23:01:00,31.2,28.3,29.98,West,260,9.0,12.0,89,0.00,,---,0.00,VWS V14.00,2013-03-13 03:01:00,
2013-03-12 23:30:00,31.4,28.5,29.98,West,270,10.0,16.0,89,0.00,,---,0.00,VWS V14.01,2013-03-13 03:30:00,
2013-03-12 23:31:00,31.4,28.5,29.98,West,270,10.0,16.0,89,0.00,,---,0.00,VWS V14.00,2013-03-13 03:31:00,